Time;durP1;ratioP1;P1;durP2;ratioP2;P2;SDS_P1;SDS_P2;PMS_P1;PMS_P2;Temp;Humidity;BMP_temperature;BMP_pressure;BME280_temperature;BME280_humidity;BME280_pressure;Samples;Min_cycle;Max_cycle;Signal;HPM_P1;HPM_P2
2022/08/22 18:23:39;;;;;;;5.68;2.30;;;;;;;16.11;76.90;98843.72;5144730;27;20135;-71
2022/08/22 18:26:20;;;;;;;3.40;2.13;;;;;;;16.16;76.99;98833.47;5105348;28;20067;-69
2022/08/22 18:28:52;;;;;;;3.65;2.33;;;;;;;16.23;76.90;98850.66;5123678;28;20039;-69
2022/08/22 18:31:37;;;;;;;3.35;2.40;;;;;;;16.36;76.86;98843.28;5123330;28;20047;-71
2022/08/22 18:34:14;;;;;;;4.72;2.97;;;;;;;16.33;76.84;98824.81;5122804;28;20063;-71
2022/08/22 18:36:52;;;;;;;5.15;4.35;;;;;;;16.32;76.77;98796.41;5122621;28;20189;-71
2022/08/22 18:39:25;;;;;;;4.97;4.10;;;;;;;16.59;76.80;98845.78;5123251;28;20086;-71
2022/08/22 18:42:00;;;;;;;6.03;4.50;;;;;;;16.65;76.10;98847.91;5122207;28;20056;-70
2022/08/22 18:44:30;;;;;;;6.05;3.60;;;;;;;16.69;76.24;98849.34;5122507;28;20051;-70
2022/08/22 18:47:01;;;;;;;5.30;2.58;;;;;;;16.74;76.87;98844.44;5122692;28;20063;-69
2022/08/22 18:49:42;;;;;;;3.33;2.22;;;;;;;16.72;75.25;98841.06;5122784;28;20056;-69
2022/08/22 18:52:17;;;;;;;4.07;2.67;;;;;;;16.70;76.10;98848.38;5122841;28;20059;-70
2022/08/22 18:55:00;;;;;;;3.33;2.17;;;;;;;16.76;75.50;98845.16;5108556;28;20056;-71
2022/08/22 18:57:41;;;;;;;3.75;2.55;;;;;;;16.79;75.75;98842.22;5101950;28;20327;-70
2022/08/22 19:00:14;;;;;;;4.03;2.25;;;;;;;16.82;76.36;98852.66;5102102;28;20055;-70
2022/08/22 19:03:02;;;;;;;3.60;2.22;;;;;;;16.82;75.21;98851.81;5102279;28;20185;-70
2022/08/22 19:06:00;;;;;;;3.22;2.15;;;;;;;16.85;75.66;98847.03;5102426;28;20060;-70
2022/08/22 19:09:01;;;;;;;5.57;4.18;;;;;;;16.79;74.95;98847.56;5102189;28;20177;-70
2022/08/22 19:11:52;;;;;;;4.68;3.55;;;;;;;16.68;75.28;98834.28;5102149;28;20063;-70
2022/08/22 19:14:35;;;;;;;5.68;4.47;;;;;;;16.82;75.67;98849.13;5101744;28;20052;-70
2022/08/22 19:17:20;;;;;;;6.45;5.50;;;;;;;16.87;75.46;98847.72;5101836;28;20063;-71
2022/08/22 19:22:45;;;;;;;7.82;6.32;;;;;;;16.87;76.12;98833.50;5101916;28;20308;-70
2022/08/22 19:25:18;;;;;;;4.72;3.95;;;;;;;16.90;76.42;98827.88;5102006;28;20048;-70
2022/08/22 19:28:25;;;;;;;8.13;5.78;;;;;;;16.83;74.71;98827.56;5101761;28;20056;-69
2022/08/22 19:31:22;;;;;;;4.70;3.53;;;;;;;16.83;75.15;98830.25;5101868;28;20040;-70
2022/08/22 19:34:10;;;;;;;8.63;6.55;;;;;;;16.82;76.58;98841.94;5094066;28;20048;-70
2022/08/22 19:36:39;;;;;;;4.88;4.03;;;;;;;16.85;75.66;98838.16;5088129;28;20067;-70
2022/08/22 19:39:08;;;;;;;3.08;2.20;;;;;;;16.50;75.30;98783.22;5088257;28;20056;-70
2022/08/22 19:41:52;;;;;;;3.08;2.13;;;;;;;16.84;74.61;98837.28;5088475;28;20047;-70
2022/08/22 19:44:36;;;;;;;5.68;2.78;;;;;;;16.83;74.96;98838.28;5087941;28;20071;-70
2022/08/22 19:47:10;;;;;;;4.22;3.13;;;;;;;16.79;75.97;98836.00;5087999;28;20186;-70
2022/08/22 19:49:40;;;;;;;9.07;5.00;;;;;;;16.83;76.00;98838.28;5087928;28;20056;-70
2022/08/22 19:52:24;;;;;;;7.18;6.40;;;;;;;16.82;75.28;98833.91;5087921;28;20067;-71
2022/08/22 19:55:02;;;;;;;5.70;4.70;;;;;;;16.88;75.92;98843.22;5087883;28;20063;-70
2022/08/22 19:57:41;;;;;;;5.22;3.67;;;;;;;16.89;74.72;98845.75;5087892;28;20040;-70
2022/08/22 20:00:13;;;;;;;3.85;3.08;;;;;;;16.89;74.85;98850.28;5087694;28;20052;-70
2022/08/22 20:02:55;;;;;;;4.88;2.30;;;;;;;16.87;74.60;98847.72;5087728;28;20311;-70
2022/08/22 20:05:44;;;;;;;3.47;2.28;;;;;;;16.83;74.56;98848.97;5087642;28;20053;-69
2022/08/22 20:08:42;;;;;;;3.72;2.22;;;;;;;16.67;74.60;98833.44;5087611;28;20052;-69
2022/08/22 20:11:25;;;;;;;3.38;2.15;;;;;;;16.80;74.88;98846.59;5085929;28;20056;-70
2022/08/22 20:14:11;;;;;;;2.60;1.63;;;;;;;16.35;74.22;98787.25;5087093;28;20059;-70
2022/08/22 20:17:02;;;;;;;3.30;2.15;;;;;;;16.78;74.01;98851.22;5087402;28;20052;-69
2022/08/22 20:19:38;;;;;;;3.28;1.83;;;;;;;16.79;74.72;98855.59;5087171;28;20068;-69
2022/08/22 20:22:10;;;;;;;2.70;1.80;;;;;;;16.79;74.98;98860.94;5087315;28;20056;-70
2022/08/22 20:24:48;;;;;;;2.95;2.03;;;;;;;16.65;74.14;98838.06;5087212;28;20056;-69
2022/08/22 20:27:21;;;;;;;2.22;1.60;;;;;;;16.78;74.96;98843.19;5087578;28;20174;-70
2022/08/22 20:29:54;;;;;;;2.42;1.73;;;;;;;16.78;75.23;98856.56;5086883;28;20052;-70
2022/08/22 20:32:24;;;;;;;3.15;2.15;;;;;;;16.74;74.87;98841.78;5086914;28;20066;-70
2022/08/22 20:34:57;;;;;;;3.97;2.38;;;;;;;16.73;74.93;98845.44;5087003;28;20075;-70
2022/08/22 20:37:30;;;;;;;4.05;2.22;;;;;;;16.76;75.54;98845.16;5087145;28;20051;-70
2022/08/22 20:40:14;;;;;;;2.50;1.60;;;;;;;16.79;75.16;98841.38;5086835;28;20316;-71
2022/08/22 20:42:45;;;;;;;4.75;2.28;;;;;;;16.80;74.65;98830.53;5086558;28;20056;-71
2022/08/22 20:45:16;;;;;;;2.50;1.85;;;;;;;16.84;75.13;98836.44;5085808;28;20063;-71
2022/08/22 20:47:46;;;;;;;3.70;2.00;;;;;;;16.78;74.83;98828.97;5069091;28;20056;-71
2022/08/22 20:50:17;;;;;;;2.72;1.90;;;;;;;16.78;74.97;98834.31;5086973;28;20057;-71
2022/08/22 20:52:46;;;;;;;4.93;2.95;;;;;;;16.73;74.86;98832.06;5086388;28;20078;-70
2022/08/22 20:55:19;;;;;;;5.38;2.63;;;;;;;16.78;74.60;98827.13;5086617;28;20056;-70
2022/08/22 20:57:52;;;;;;;3.58;2.10;;;;;;;16.63;75.02;98805.22;5086446;28;20059;-70
2022/08/22 21:00:23;;;;;;;2.80;2.03;;;;;;;16.76;74.76;98828.25;5086700;28;20063;-70
2022/08/22 21:02:55;;;;;;;3.70;2.40;;;;;;;16.76;74.82;98831.78;5086588;28;20548;-71
2022/08/22 21:05:25;;;;;;;3.10;2.00;;;;;;;16.26;75.16;98730.09;5069022;28;20055;-70
2022/08/22 21:08:04;;;;;;;3.28;2.10;;;;;;;16.81;74.33;98812.63;5086160;28;20316;-70
2022/08/22 21:13:37;;;;;;;3.00;2.30;;;;;;;16.61;75.37;98788.47;5025384;28;20049;-70
2022/08/22 21:16:12;;;;;;;3.25;2.10;;;;;;;16.38;74.46;98764.75;5025172;28;20076;-70
2022/08/22 21:18:42;;;;;;;3.47;2.17;;;;;;;16.74;75.48;98812.34;5056756;28;20059;-70
2022/08/22 21:21:13;;;;;;;3.40;2.40;;;;;;;16.59;75.36;98787.75;5068241;28;20106;-70
2022/08/22 21:23:43;;;;;;;2.67;2.10;;;;;;;16.51;75.41;98776.91;5086116;28;20129;-69
2022/08/22 21:26:19;;;;;;;4.95;3.15;;;;;;;16.74;75.14;98808.81;5086375;28;20083;-70
2022/08/22 21:28:57;;;;;;;3.33;2.20;;;;;;;16.70;74.87;98810.06;5085932;28;20067;-70
2022/08/22 21:31:26;;;;;;;3.58;2.95;;;;;;;16.69;75.53;98806.56;5084372;28;20056;-70
2022/08/22 21:33:55;;;;;;;3.58;2.42;;;;;;;16.71;75.42;98807.25;5085581;28;20106;-70
2022/08/22 21:36:26;;;;;;;3.47;2.72;;;;;;;16.69;75.29;98795.84;5086278;28;20102;-70
